Time;durP1;ratioP1;P1;durP2;ratioP2;P2;SDS_P1;SDS_P2;PMS_P1;PMS_P2;Temp;Humidity;BMP_temperature;BMP_pressure;BME280_temperature;BME280_humidity;BME280_pressure;Samples;Min_cycle;Max_cycle;Signal;HPM_P1;HPM_P2
2021/04/07 00:00:34;;;;;;;14.93;8.52;;;0.10;99.90;;;;;;4998614;28;20217;-70
2021/04/07 00:03:02;;;;;;;13.38;8.70;;;0.00;99.90;;;;;;4995372;28;20210;-69
2021/04/07 00:05:32;;;;;;;11.50;8.45;;;-0.10;99.90;;;;;;4995221;28;20253;-69
2021/04/07 00:07:59;;;;;;;11.98;6.88;;;0.00;99.90;;;;;;4998723;28;20507;-70
2021/04/07 00:10:40;;;;;;;10.25;7.50;;;-0.20;99.90;;;;;;4995288;28;20287;-68
2021/04/07 00:13:08;;;;;;;13.80;8.30;;;-0.30;99.90;;;;;;4999003;28;20214;-68
2021/04/07 00:15:36;;;;;;;11.32;7.70;;;-0.20;99.90;;;;;;4998364;28;20456;-70
2021/04/07 00:18:03;;;;;;;13.15;6.57;;;-0.20;99.90;;;;;;4998861;28;20492;-67
2021/04/07 00:20:31;;;;;;;8.57;6.25;;;-0.30;99.90;;;;;;5001560;28;20240;-67
2021/04/07 00:22:58;;;;;;;9.40;6.72;;;0.60;99.90;;;;;;4989492;28;20229;-67
2021/04/07 00:25:26;;;;;;;14.38;6.65;;;-0.40;99.90;;;;;;4998448;28;20216;-66
2021/04/07 00:27:58;;;;;;;14.85;6.88;;;-0.30;99.90;;;;;;4969634;28;20214;-66
2021/04/07 00:30:26;;;;;;;12.90;5.90;;;-0.20;99.90;;;;;;5011496;28;20232;-68
2021/04/07 00:32:54;;;;;;;8.05;6.25;;;-0.10;99.90;;;;;;4998854;28;20202;-66
2021/04/07 00:35:21;;;;;;;6.70;5.63;;;0.80;99.90;;;;;;5008118;28;20522;-66
2021/04/07 00:37:48;;;;;;;8.60;6.47;;;0.10;99.90;;;;;;4983209;28;20285;-66
2021/04/07 00:40:16;;;;;;;10.65;6.00;;;-0.10;99.90;;;;;;4989932;28;20201;-67
2021/04/07 00:42:44;;;;;;;10.50;7.55;;;-0.10;99.90;;;;;;4998191;28;20209;-67
2021/04/07 00:45:11;;;;;;;10.18;6.50;;;-0.20;99.90;;;;;;4997421;28;20216;-66
2021/04/07 00:47:39;;;;;;;8.63;5.30;;;-0.10;99.90;;;;;;4998355;28;20218;-66
2021/04/07 00:50:08;;;;;;;13.57;6.13;;;-0.10;99.90;;;;;;4997102;28;20317;-66
2021/04/07 00:52:35;;;;;;;7.93;5.78;;;0.20;99.90;;;;;;4996629;28;20221;-66
2021/04/07 00:55:03;;;;;;;8.88;6.93;;;0.30;99.40;;;;;;4998174;28;20205;-66
2021/04/07 00:57:30;;;;;;;11.05;6.53;;;0.20;99.40;;;;;;4998081;28;20210;-66
2021/04/07 00:59:57;;;;;;;7.93;6.00;;;0.20;99.30;;;;;;4997673;28;20236;-66
2021/04/07 01:02:23;;;;;;;6.47;5.38;;;0.10;99.50;;;;;;4997778;28;20223;-66
2021/04/07 01:04:51;;;;;;;7.65;6.68;;;0.70;99.90;;;;;;4998062;28;20280;-66
2021/04/07 01:07:18;;;;;;;11.57;7.55;;;-0.10;99.90;;;;;;4998925;28;20206;-65
2021/04/07 01:09:44;;;;;;;7.68;6.10;;;0.10;99.90;;;;;;4997522;28;20213;-66
2021/04/07 01:12:11;;;;;;;7.57;5.07;;;0.20;99.90;;;;;;4998188;28;20246;-65
2021/04/07 01:14:39;;;;;;;7.88;6.47;;;0.40;99.90;;;;;;4998417;28;20213;-65
2021/04/07 01:17:07;;;;;;;8.63;6.70;;;0.70;99.50;;;;;;4984233;28;20227;-66
2021/04/07 01:19:34;;;;;;;9.13;5.80;;;1.00;98.90;;;;;;4997386;28;20500;-65
2021/04/07 01:22:01;;;;;;;8.13;5.50;;;1.20;98.40;;;;;;4994907;28;20530;-65
2021/04/07 01:24:30;;;;;;;9.60;5.40;;;1.40;98.10;;;;;;4997765;28;20389;-66
2021/04/07 01:26:57;;;;;;;7.28;5.95;;;1.50;97.70;;;;;;4997334;28;20212;-66
2021/04/07 01:29:24;;;;;;;6.60;5.70;;;1.40;97.50;;;;;;5008343;28;20221;-66
2021/04/07 01:31:52;;;;;;;9.55;4.38;;;1.40;97.90;;;;;;4999729;28;20240;-66
2021/04/07 01:34:27;;;;;;;6.80;5.40;;;1.30;97.70;;;;;;4990104;28;20252;-66
2021/04/07 01:36:56;;;;;;;8.55;5.82;;;1.40;97.80;;;;;;4995906;28;20207;-66
2021/04/07 01:39:24;;;;;;;6.78;5.72;;;1.40;97.70;;;;;;5004495;28;20264;-65
2021/04/07 01:41:52;;;;;;;6.55;4.90;;;1.40;97.80;;;;;;4998165;28;20284;-65
2021/04/07 01:44:21;;;;;;;6.40;4.60;;;1.30;98.00;;;;;;4992367;28;20206;-65
2021/04/07 01:46:49;;;;;;;5.85;4.95;;;1.30;97.90;;;;;;4995941;28;20205;-66
2021/04/07 01:49:16;;;;;;;7.05;5.45;;;1.30;97.70;;;;;;4979858;28;20643;-65
2021/04/07 01:51:43;;;;;;;10.48;5.03;;;1.30;97.90;;;;;;4987766;28;20229;-65
2021/04/07 01:54:12;;;;;;;6.85;5.93;;;1.30;97.90;;;;;;4997184;28;20216;-65
2021/04/07 01:56:50;;;;;;;6.50;5.22;;;1.40;98.00;;;;;;4989953;28;20220;-65
2021/04/07 01:59:18;;;;;;;8.23;5.18;;;1.20;98.40;;;;;;4960903;28;20508;-65
2021/04/07 02:01:45;;;;;;;7.90;4.93;;;1.30;98.20;;;;;;4976730;28;20214;-65
2021/04/07 02:04:14;;;;;;;8.75;4.97;;;1.40;98.10;;;;;;4991334;28;20305;-65
2021/04/07 02:06:44;;;;;;;6.47;4.93;;;1.40;97.60;;;;;;4997366;28;20217;-64
2021/04/07 02:09:11;;;;;;;6.85;5.53;;;1.40;97.80;;;;;;4997362;28;20209;-65
2021/04/07 02:11:46;;;;;;;6.97;4.65;;;1.40;97.60;;;;;;4996825;28;20275;-65
2021/04/07 02:14:14;;;;;;;9.73;4.75;;;1.40;97.60;;;;;;4985270;28;20451;-65
2021/04/07 02:16:40;;;;;;;5.88;5.38;;;1.50;97.50;;;;;;4999858;28;20211;-65
2021/04/07 02:19:10;;;;;;;8.25;4.88;;;1.60;97.60;;;;;;4995836;28;20257;-66
2021/04/07 02:21:37;;;;;;;5.32;4.07;;;1.70;97.70;;;;;;4996782;28;20209;-64
2021/04/07 02:24:05;;;;;;;5.40;4.75;;;1.70;97.30;;;;;;5007785;28;20218;-65
2021/04/07 02:26:32;;;;;;;5.72;4.80;;;1.80;97.30;;;;;;4997206;28;20376;-67
2021/04/07 02:28:59;;;;;;;8.93;5.25;;;1.80;97.00;;;;;;4997246;28;20216;-66
2021/04/07 02:31:26;;;;;;;6.82;5.25;;;1.80;97.20;;;;;;5010680;28;20244;-66
2021/04/07 02:33:52;;;;;;;6.80;4.97;;;2.00;97.40;;;;;;4984714;28;20210;-66
2021/04/07 02:36:19;;;;;;;9.43;5.55;;;2.10;96.70;;;;;;4997676;28;20233;-66
2021/04/07 02:38:45;;;;;;;5.72;5.07;;;2.30;96.60;;;;;;5007611;28;20213;-66
2021/04/07 02:41:12;;;;;;;8.23;5.95;;;2.30;96.30;;;;;;4991627;28;20252;-65
2021/04/07 02:43:39;;;;;;;6.70;4.82;;;2.40;96.40;;;;;;5001669;28;20216;-67
2021/04/07 02:46:05;;;;;;;11.85;5.43;;;2.20;96.50;;;;;;5000636;28;20217;-67
2021/04/07 02:48:32;;;;;;;7.53;5.68;;;2.10;96.70;;;;;;4987368;28;20496;-67
2021/04/07 02:50:58;;;;;;;9.85;5.55;;;2.10;96.90;;;;;;5000179;28;20241;-67
2021/04/07 02:53:25;;;;;;;6.22;5.43;;;2.10;96.90;;;;;;5012031;28;20209;-66
2021/04/07 02:55:51;;;;;;;6.95;4.47;;;2.10;96.90;;;;;;5001515;28;20217;-66
2021/04/07 02:58:18;;;;;;;8.43;5.00;;;2.00;97.00;;;;;;5001002;28;20225;-67
2021/04/07 03:00:45;;;;;;;7.20;6.47;;;2.00;97.20;;;;;;4999652;28;20425;-67
2021/04/07 03:03:11;;;;;;;8.57;6.40;;;2.10;97.20;;;;;;5000918;28;20456;-67
2021/04/07 03:05:40;;;;;;;15.90;6.10;;;2.10;97.10;;;;;;4987878;28;20257;-66
2021/04/07 03:08:07;;;;;;;8.95;5.57;;;2.10;96.80;;;;;;4999870;28;20523;-67
2021/04/07 03:10:34;;;;;;;9.45;6.50;;;2.00;97.10;;;;;;4999800;28;20241;-67
2021/04/07 03:13:00;;;;;;;10.50;5.40;;;2.00;97.30;;;;;;4996135;28;20199;-66
2021/04/07 03:15:27;;;;;;;8.52;6.75;;;2.00;97.00;;;;;;4975768;28;20225;-67
2021/04/07 03:17:53;;;;;;;9.98;6.85;;;2.50;97.60;;;;;;4999607;28;20224;-67
2021/04/07 03:20:20;;;;;;;8.25;6.20;;;1.80;97.50;;;;;;4999668;28;20515;-67
2021/04/07 03:22:47;;;;;;;6.60;5.75;;;2.00;97.40;;;;;;4999429;28;20392;-67
2021/04/07 03:25:13;;;;;;;6.68;5.97;;;1.90;97.50;;;;;;4999712;28;20300;-66
2021/04/07 03:27:40;;;;;;;9.85;8.35;;;1.70;97.70;;;;;;4987347;28;20229;-66
2021/04/07 03:30:08;;;;;;;7.00;6.25;;;1.70;97.90;;;;;;4999138;28;20206;-67
2021/04/07 03:32:34;;;;;;;6.75;6.13;;;1.80;97.60;;;;;;4988948;28;20210;-67
2021/04/07 03:35:01;;;;;;;10.27;7.22;;;1.80;97.60;;;;;;5012954;28;20205;-66
2021/04/07 03:37:28;;;;;;;12.82;7.05;;;1.90;97.40;;;;;;5008802;28;20211;-66
2021/04/07 03:39:54;;;;;;;10.60;7.32;;;1.90;97.40;;;;;;4983616;28;20221;-66
2021/04/07 03:42:21;;;;;;;9.25;7.57;;;1.90;97.40;;;;;;4999139;28;20508;-66
2021/04/07 03:44:47;;;;;;;11.73;7.30;;;1.80;97.50;;;;;;4995853;28;20210;-67
2021/04/07 03:47:14;;;;;;;10.07;7.30;;;1.80;97.30;;;;;;4996527;28;20202;-67
2021/04/07 03:49:40;;;;;;;7.95;7.07;;;1.70;97.50;;;;;;4966720;28;20507;-66
2021/04/07 03:52:07;;;;;;;8.32;7.40;;;1.70;97.60;;;;;;4994937;28;20232;-68
2021/04/07 03:54:35;;;;;;;9.98;7.40;;;1.80;97.50;;;;;;4999604;28;20212;-67
2021/04/07 03:57:02;;;;;;;12.15;6.82;;;1.80;97.60;;;;;;4982722;28;20500;-66
2021/04/07 03:59:29;;;;;;;9.25;6.80;;;2.00;97.50;;;;;;4998178;28;20233;-68
2021/04/07 04:01:55;;;;;;;11.60;7.85;;;1.90;97.50;;;;;;4988835;28;20210;-67
2021/04/07 04:04:22;;;;;;;12.50;8.43;;;2.00;97.40;;;;;;5005684;28;20426;-67
2021/04/07 04:06:49;;;;;;;7.25;6.25;;;2.00;97.50;;;;;;4991433;28;20329;-68
2021/04/07 04:09:16;;;;;;;8.20;6.60;;;2.10;97.40;;;;;;4999443;28;20209;-67
2021/04/07 04:11:43;;;;;;;8.98;6.70;;;2.10;97.30;;;;;;4997498;28;20289;-68
2021/04/07 04:14:10;;;;;;;9.27;6.90;;;2.20;97.30;;;;;;4998637;28;20206;-66
2021/04/07 04:16:36;;;;;;;11.57;6.53;;;2.10;97.20;;;;;;4998428;28;20214;-67
2021/04/07 04:19:03;;;;;;;9.70;6.03;;;2.00;97.30;;;;;;4974957;28;20290;-67
2021/04/07 04:21:29;;;;;;;10.63;7.97;;;2.00;97.50;;;;;;5011051;28;20220;-66
2021/04/07 04:23:56;;;;;;;9.38;7.20;;;1.80;97.80;;;;;;4994575;28;20233;-69
2021/04/07 04:26:23;;;;;;;10.88;7.32;;;1.80;97.60;;;;;;5009090;28;20208;-69
2021/04/07 04:28:49;;;;;;;10.45;6.95;;;1.80;97.30;;;;;;4980807;28;20210;-69
2021/04/07 04:31:16;;;;;;;11.65;5.88;;;1.90;97.10;;;;;;5006281;28;20560;-69
2021/04/07 04:33:43;;;;;;;7.82;5.70;;;1.90;97.00;;;;;;4995783;28;20217;-67
2021/04/07 04:36:10;;;;;;;8.88;7.30;;;1.90;96.70;;;;;;4995347;28;20259;-69
2021/04/07 04:38:36;;;;;;;9.73;6.05;;;1.90;96.60;;;;;;4997544;28;20206;-68
2021/04/07 04:41:03;;;;;;;5.90;4.60;;;2.00;96.50;;;;;;4991276;28;20213;-70
2021/04/07 04:43:30;;;;;;;13.15;6.28;;;2.10;96.00;;;;;;4984001;28;20611;-68
2021/04/07 04:45:56;;;;;;;7.85;6.18;;;2.00;96.10;;;;;;4991636;28;20201;-68
2021/04/07 04:48:23;;;;;;;7.65;6.53;;;2.20;95.80;;;;;;4987932;28;20202;-69
2021/04/07 04:50:50;;;;;;;7.20;6.32;;;2.30;95.40;;;;;;4990090;28;20234;-66
2021/04/07 04:53:16;;;;;;;6.35;5.53;;;2.40;95.10;;;;;;5007039;28;20492;-67
2021/04/07 04:55:43;;;;;;;13.82;6.28;;;2.10;95.20;;;;;;5005968;28;20206;-69
2021/04/07 04:58:09;;;;;;;7.45;5.15;;;2.00;95.70;;;;;;5003624;28;20213;-67
2021/04/07 05:00:36;;;;;;;7.80;6.28;;;2.10;95.70;;;;;;4999642;28;20560;-68
2021/04/07 05:03:02;;;;;;;9.52;6.60;;;2.10;95.60;;;;;;5011352;28;20212;-68
2021/04/07 05:05:29;;;;;;;14.73;8.00;;;2.10;95.50;;;;;;4998987;28;20243;-69
2021/04/07 05:07:58;;;;;;;7.20;5.68;;;2.20;95.60;;;;;;4989370;28;20568;-68
2021/04/07 05:10:24;;;;;;;9.88;7.43;;;2.20;95.90;;;;;;4996304;28;20575;-69
2021/04/07 05:12:51;;;;;;;8.38;5.68;;;2.20;96.00;;;;;;5010476;28;20213;-68
2021/04/07 05:15:18;;;;;;;7.10;5.95;;;2.20;96.30;;;;;;5008668;28;20205;-69
2021/04/07 05:17:44;;;;;;;6.25;4.53;;;2.20;96.50;;;;;;4999764;28;20281;-70
2021/04/07 05:20:12;;;;;;;6.60;5.90;;;2.20;96.20;;;;;;5010650;28;20216;-70
2021/04/07 05:22:38;;;;;;;7.93;5.45;;;2.40;96.30;;;;;;4981471;28;20211;-70
2021/04/07 05:25:05;;;;;;;7.40;5.00;;;2.40;96.40;;;;;;4971848;28;20205;-68
2021/04/07 05:27:32;;;;;;;6.60;4.90;;;2.20;97.90;;;;;;4978675;28;20210;-70
2021/04/07 05:29:58;;;;;;;12.57;5.85;;;1.80;99.10;;;;;;4976964;28;20210;-69
2021/04/07 05:32:25;;;;;;;8.68;5.95;;;1.70;99.60;;;;;;4979381;28;20427;-69
2021/04/07 05:34:52;;;;;;;9.05;6.63;;;1.70;99.90;;;;;;4982438;28;20221;-69
2021/04/07 05:37:18;;;;;;;8.85;5.35;;;1.60;99.90;;;;;;4972653;28;20206;-69
2021/04/07 05:39:45;;;;;;;8.35;6.15;;;1.70;99.90;;;;;;4985531;28;20237;-69
2021/04/07 05:42:12;;;;;;;8.68;6.28;;;1.80;99.90;;;;;;4978994;28;20210;-71
2021/04/07 05:44:38;;;;;;;9.90;6.45;;;1.90;99.90;;;;;;4980390;28;20224;-72
2021/04/07 05:47:05;;;;;;;7.50;6.80;;;2.10;99.90;;;;;;4989818;28;20231;-71
2021/04/07 05:49:32;;;;;;;9.68;6.72;;;2.20;99.90;;;;;;4986414;28;20337;-72
2021/04/07 05:51:59;;;;;;;8.43;6.88;;;2.30;99.90;;;;;;4980684;28;20236;-72
2021/04/07 05:54:25;;;;;;;7.93;6.63;;;2.10;99.90;;;;;;5008314;28;20208;-71
2021/04/07 05:56:52;;;;;;;7.07;6.35;;;2.10;99.90;;;;;;4997791;28;20213;-72
2021/04/07 05:59:19;;;;;;;7.80;7.10;;;2.10;99.90;;;;;;4997299;28;20206;-74
2021/04/07 06:01:45;;;;;;;9.30;6.72;;;2.10;99.90;;;;;;4994245;28;20209;-74
2021/04/07 06:04:12;;;;;;;8.52;6.60;;;2.00;99.90;;;;;;4982151;28;20209;-71
2021/04/07 06:06:45;;;;;;;12.52;6.97;;;1.90;99.90;;;;;;4985056;28;20252;-73
2021/04/07 06:09:12;;;;;;;14.00;7.15;;;1.90;99.90;;;;;;4997242;28;20309;-72
2021/04/07 06:11:39;;;;;;;11.43;6.55;;;2.10;99.90;;;;;;4998134;28;20309;-72
2021/04/07 06:14:06;;;;;;;10.90;6.80;;;2.20;99.90;;;;;;5001840;28;20209;-75
2021/04/07 06:16:32;;;;;;;6.25;5.65;;;2.40;99.90;;;;;;5004638;28;20324;-73
2021/04/07 06:19:01;;;;;;;8.38;6.45;;;2.20;99.90;;;;;;4989625;28;20220;-73
2021/04/07 06:21:29;;;;;;;8.85;6.63;;;1.80;99.90;;;;;;5008548;28;20213;-73
2021/04/07 06:23:55;;;;;;;7.78;6.72;;;2.50;99.90;;;;;;4997111;28;20365;-73
2021/04/07 06:26:22;;;;;;;11.25;6.78;;;2.60;99.90;;;;;;5007856;28;20464;-71
2021/04/07 06:28:49;;;;;;;7.90;7.07;;;2.90;99.90;;;;;;5008351;28;20234;-72
2021/04/07 06:31:16;;;;;;;9.70;7.47;;;3.30;99.80;;;;;;5006737;28;20268;-73
2021/04/07 06:33:42;;;;;;;8.75;7.85;;;3.60;98.80;;;;;;4999742;28;20258;-71
2021/04/07 06:36:10;;;;;;;11.43;8.43;;;3.90;98.80;;;;;;5000579;28;20254;-71
2021/04/07 06:38:38;;;;;;;7.93;6.80;;;5.30;97.90;;;;;;5010351;28;20509;-71
2021/04/07 06:41:07;;;;;;;9.68;7.80;;;4.30;97.00;;;;;;5007478;28;20219;-71
2021/04/07 06:43:34;;;;;;;10.90;9.40;;;4.20;96.90;;;;;;5009683;28;20207;-70
2021/04/07 06:46:03;;;;;;;8.63;6.60;;;4.30;97.40;;;;;;5001251;28;20545;-70
2021/04/07 06:48:30;;;;;;;7.78;6.20;;;4.70;96.90;;;;;;4998698;28;20561;-70
2021/04/07 06:50:57;;;;;;;7.40;6.32;;;4.70;95.80;;;;;;4999737;28;20237;-70
2021/04/07 06:53:27;;;;;;;10.35;6.55;;;5.40;95.20;;;;;;5002215;28;20213;-69
2021/04/07 06:55:55;;;;;;;9.18;6.20;;;7.30;91.50;;;;;;5004493;28;20273;-71
2021/04/07 06:58:22;;;;;;;8.98;5.82;;;9.80;82.30;;;;;;5002086;28;20609;-70
2021/04/07 07:00:49;;;;;;;6.65;6.05;;;10.90;79.60;;;;;;5003653;28;20262;-71
2021/04/07 07:03:22;;;;;;;6.95;6.28;;;11.00;75.90;;;;;;4995885;28;20597;-72
2021/04/07 07:05:54;;;;;;;8.27;7.32;;;9.80;78.20;;;;;;4998502;28;20875;-71
2021/04/07 07:08:37;;;;;;;8.23;6.32;;;9.00;83.70;;;;;;5002944;28;20209;-70
2021/04/07 07:11:17;;;;;;;8.55;6.10;;;7.60;79.80;;;;;;4999488;28;20253;-70
2021/04/07 07:13:47;;;;;;;9.98;6.95;;;8.60;79.20;;;;;;4992679;28;20245;-70
2021/04/07 07:16:25;;;;;;;7.00;6.30;;;9.30;75.10;;;;;;4999486;28;20206;-70
2021/04/07 07:19:00;;;;;;;8.75;6.15;;;9.10;74.60;;;;;;5001522;28;20254;-70
2021/04/07 07:21:33;;;;;;;8.35;6.90;;;8.30;77.60;;;;;;4998482;28;20248;-70
2021/04/07 07:24:00;;;;;;;6.55;5.93;;;7.50;80.10;;;;;;4992262;28;20432;-70
2021/04/07 07:26:42;;;;;;;11.00;6.70;;;6.60;83.50;;;;;;4999142;28;20213;-69
2021/04/07 07:29:11;;;;;;;10.60;7.30;;;6.20;85.60;;;;;;5002834;28;20206;-69
2021/04/07 07:31:37;;;;;;;8.18;7.15;;;5.90;86.90;;;;;;4986095;28;20240;-69
2021/04/07 07:34:05;;;;;;;7.70;6.20;;;5.60;89.90;;;;;;4979934;28;20206;-69
2021/04/07 07:36:34;;;;;;;11.00;6.45;;;5.40;89.80;;;;;;4999177;28;20414;-69
2021/04/07 07:39:05;;;;;;;8.02;6.20;;;5.30;90.20;;;;;;5002239;28;20237;-70
2021/04/07 07:41:35;;;;;;;7.05;6.32;;;5.00;90.30;;;;;;5006862;28;20239;-70
2021/04/07 07:44:18;;;;;;;9.95;8.30;;;4.90;91.50;;;;;;5006051;28;20220;-71
2021/04/07 07:46:47;;;;;;;9.40;6.88;;;5.20;90.80;;;;;;4987821;28;20209;-70
2021/04/07 07:49:19;;;;;;;12.60;8.48;;;5.70;90.70;;;;;;4999749;28;20266;-70
2021/04/07 07:51:47;;;;;;;12.15;8.57;;;5.60;90.40;;;;;;4987694;28;20469;-69
2021/04/07 07:54:16;;;;;;;10.48;6.45;;;5.10;91.50;;;;;;4980553;28;20215;-72
2021/04/07 07:56:44;;;;;;;10.30;7.70;;;4.60;91.90;;;;;;4999194;28;20266;-70
2021/04/07 07:59:11;;;;;;;9.93;7.50;;;4.50;92.30;;;;;;4999287;28;20400;-69
2021/04/07 08:01:44;;;;;;;7.55;5.95;;;4.70;91.40;;;;;;4998801;28;20213;-70
2021/04/07 08:04:11;;;;;;;8.63;7.80;;;4.80;92.10;;;;;;4985421;28;20567;-69
2021/04/07 08:06:38;;;;;;;7.22;6.53;;;5.20;90.90;;;;;;4998881;28;20229;-71
2021/04/07 08:09:05;;;;;;;9.75;7.03;;;5.30;90.70;;;;;;4998623;28;20210;-71
2021/04/07 08:11:33;;;;;;;10.05;8.32;;;5.10;90.40;;;;;;4992272;28;20552;-70
2021/04/07 08:14:00;;;;;;;8.70;5.60;;;5.20;91.00;;;;;;4992980;28;20209;-70
2021/04/07 08:16:32;;;;;;;7.80;6.78;;;4.90;90.60;;;;;;4993898;28;20511;-68
2021/04/07 08:19:03;;;;;;;9.07;7.28;;;4.60;91.50;;;;;;4991353;28;20279;-71
2021/04/07 08:21:30;;;;;;;7.93;6.47;;;4.60;91.60;;;;;;4998204;28;20217;-69
2021/04/07 08:24:00;;;;;;;7.80;7.00;;;4.70;92.30;;;;;;4998624;28;20280;-70
2021/04/07 08:26:29;;;;;;;7.80;7.00;;;4.90;91.90;;;;;;4984461;28;20463;-69
2021/04/07 08:28:56;;;;;;;8.57;6.65;;;5.10;91.20;;;;;;4998785;28;20210;-70
2021/04/07 08:31:25;;;;;;;9.43;7.57;;;5.20;90.70;;;;;;4998639;28;20304;-71
2021/04/07 08:33:55;;;;;;;7.18;6.15;;;5.50;90.30;;;;;;4978827;28;20210;-70
2021/04/07 08:36:24;;;;;;;5.82;5.00;;;5.70;88.70;;;;;;4990989;28;20217;-70
2021/04/07 08:39:06;;;;;;;5.75;5.15;;;6.00;86.20;;;;;;5000548;28;20280;-70
2021/04/07 08:41:33;;;;;;;7.95;5.88;;;6.20;87.10;;;;;;5014997;28;20499;-70
2021/04/07 08:44:02;;;;;;;8.60;5.47;;;5.90;86.40;;;;;;5004602;28;20399;-71
2021/04/07 08:46:49;;;;;;;9.55;6.30;;;5.30;87.60;;;;;;4998001;28;20209;-71
2021/04/07 08:49:37;;;;;;;8.05;5.30;;;4.80;90.10;;;;;;4984640;28;20268;-70
2021/04/07 08:52:15;;;;;;;11.52;6.05;;;4.80;90.40;;;;;;4980477;28;20240;-70
2021/04/07 08:54:53;;;;;;;6.85;4.88;;;5.00;90.50;;;;;;4975727;28;20285;-70
2021/04/07 08:57:39;;;;;;;9.05;5.88;;;5.20;90.20;;;;;;4996092;28;20216;-70
2021/04/07 09:00:15;;;;;;;10.65;5.88;;;5.40;89.30;;;;;;4998485;28;20208;-69
2021/04/07 09:02:58;;;;;;;7.13;5.20;;;5.50;87.80;;;;;;5001353;28;20208;-70
2021/04/07 09:05:30;;;;;;;11.38;5.90;;;5.50;87.10;;;;;;5000932;28;20229;-72
2021/04/07 09:07:58;;;;;;;5.90;5.25;;;5.70;87.80;;;;;;5000838;28;20209;-71
2021/04/07 09:10:26;;;;;;;11.68;5.88;;;5.50;87.10;;;;;;4998293;28;20232;-69
2021/04/07 09:12:54;;;;;;;7.43;6.18;;;5.30;87.60;;;;;;5004087;28;20232;-69
2021/04/07 09:15:26;;;;;;;6.10;5.35;;;4.90;89.40;;;;;;4998928;28;20204;-69
2021/04/07 09:17:55;;;;;;;8.07;4.72;;;4.80;90.60;;;;;;4998072;28;20399;-70
2021/04/07 09:20:47;;;;;;;7.60;5.43;;;4.90;89.50;;;;;;5001084;28;20217;-70
2021/04/07 09:23:30;;;;;;;5.57;4.05;;;5.20;88.40;;;;;;4982226;28;20236;-70
2021/04/07 09:26:17;;;;;;;7.22;4.53;;;5.60;85.10;;;;;;4998213;28;20223;-70
2021/04/07 09:28:57;;;;;;;10.23;4.82;;;6.20;84.10;;;;;;4986947;28;20592;-71
2021/04/07 09:31:28;;;;;;;5.30;4.80;;;6.30;82.80;;;;;;5003152;28;20232;-70
2021/04/07 09:34:16;;;;;;;6.43;4.43;;;6.40;82.60;;;;;;4987986;28;20251;-71
2021/04/07 09:36:50;;;;;;;7.40;5.18;;;6.30;84.40;;;;;;5003320;28;20448;-71
2021/04/07 09:39:23;;;;;;;6.55;5.60;;;6.40;82.40;;;;;;4997803;28;20205;-69
2021/04/07 09:41:51;;;;;;;6.85;5.05;;;6.60;80.90;;;;;;5000502;28;20285;-70
2021/04/07 09:44:19;;;;;;;6.18;4.68;;;6.50;80.40;;;;;;4984240;28;20243;-70
2021/04/07 09:47:08;;;;;;;5.82;3.50;;;6.30;78.50;;;;;;4997720;28;20209;-71
2021/04/07 09:49:47;;;;;;;4.18;3.40;;;5.70;79.80;;;;;;4990392;28;20245;-70
2021/04/07 09:52:14;;;;;;;3.90;3.60;;;5.40;79.90;;;;;;5000301;28;20225;-70
2021/04/07 09:54:41;;;;;;;3.90;3.58;;;5.40;80.80;;;;;;5000269;28;20210;-70
2021/04/07 09:57:11;;;;;;;3.63;3.28;;;5.70;77.90;;;;;;5002732;28;20216;-71
2021/04/07 09:59:52;;;;;;;5.45;2.88;;;6.20;76.40;;;;;;5000854;28;20244;-69
2021/04/07 10:02:22;;;;;;;5.50;3.20;;;6.60;75.40;;;;;;5004866;28;20209;-70
2021/04/07 10:04:52;;;;;;;4.07;3.67;;;6.80;72.00;;;;;;4990616;28;20259;-70
2021/04/07 10:07:30;;;;;;;4.95;4.40;;;6.80;71.70;;;;;;5002720;28;20244;-70
2021/04/07 10:10:00;;;;;;;4.80;3.67;;;7.10;70.80;;;;;;4999673;28;20443;-71
2021/04/07 10:12:28;;;;;;;13.90;4.20;;;7.10;70.80;;;;;;5002203;28;20233;-70
2021/04/07 10:15:04;;;;;;;4.43;3.95;;;7.10;70.30;;;;;;5002703;28;20431;-70
2021/04/07 10:17:32;;;;;;;4.82;4.53;;;7.30;68.10;;;;;;5001178;28;20217;-72
2021/04/07 10:20:10;;;;;;;5.60;4.00;;;7.70;67.00;;;;;;5008446;28;20252;-71
2021/04/07 10:22:38;;;;;;;4.53;4.13;;;7.70;65.50;;;;;;5008208;28;20569;-71
2021/04/07 10:25:16;;;;;;;4.30;4.00;;;7.50;65.80;;;;;;5000180;28;20212;-70
2021/04/07 10:27:45;;;;;;;5.50;4.32;;;7.30;66.30;;;;;;4983350;28;20267;-70
2021/04/07 10:30:21;;;;;;;4.05;3.85;;;7.00;68.50;;;;;;4989983;28;20209;-69
2021/04/07 10:32:56;;;;;;;3.78;3.58;;;6.70;69.80;;;;;;4989853;28;20230;-70
2021/04/07 10:35:38;;;;;;;3.88;3.40;;;6.70;72.40;;;;;;5006046;28;20216;-70
2021/04/07 10:38:15;;;;;;;7.55;4.00;;;6.70;72.40;;;;;;5007291;28;20205;-70
2021/04/07 10:41:01;;;;;;;4.40;4.00;;;7.10;72.30;;;;;;5010991;28;20201;-69
2021/04/07 10:43:43;;;;;;;6.63;4.57;;;7.70;68.90;;;;;;5004455;28;20206;-69
2021/04/07 10:46:14;;;;;;;5.00;4.10;;;7.80;67.10;;;;;;4978169;28;20210;-69
2021/04/07 10:48:43;;;;;;;6.13;5.10;;;7.60;68.00;;;;;;4988689;28;20269;-70
2021/04/07 10:51:22;;;;;;;6.22;3.70;;;7.00;71.10;;;;;;4999438;28;20312;-69
2021/04/07 10:53:55;;;;;;;7.68;3.75;;;6.70;74.20;;;;;;4984723;28;20214;-71
2021/04/07 10:56:24;;;;;;;6.38;3.00;;;6.40;76.00;;;;;;5000062;28;20213;-69
2021/04/07 10:58:55;;;;;;;3.85;2.70;;;6.30;79.00;;;;;;5000435;28;20217;-71
2021/04/07 11:01:39;;;;;;;3.13;2.92;;;6.30;77.40;;;;;;5006580;28;20288;-70
2021/04/07 11:04:20;;;;;;;4.10;3.72;;;6.60;76.80;;;;;;5000723;28;21410;-70
2021/04/07 11:06:56;;;;;;;3.90;3.70;;;7.00;78.00;;;;;;5010068;28;20266;-69
2021/04/07 11:09:35;;;;;;;7.68;4.32;;;7.50;73.80;;;;;;5006906;28;20217;-69
2021/04/07 11:12:04;;;;;;;4.22;3.78;;;7.80;72.00;;;;;;5002461;28;20252;-71
2021/04/07 11:14:32;;;;;;;4.68;4.20;;;8.00;74.20;;;;;;5011269;28;20504;-70
2021/04/07 11:17:01;;;;;;;7.20;5.35;;;7.50;74.10;;;;;;5012060;28;20209;-71
2021/04/07 11:19:37;;;;;;;4.38;3.97;;;7.30;75.30;;;;;;5007201;28;20201;-70
2021/04/07 11:22:06;;;;;;;6.28;4.07;;;7.10;74.20;;;;;;5007189;28;20266;-71
2021/04/07 11:24:33;;;;;;;5.45;4.45;;;7.20;74.10;;;;;;5002605;28;20209;-70
2021/04/07 11:27:00;;;;;;;4.40;4.10;;;7.40;72.80;;;;;;5011871;28;20220;-70
2021/04/07 11:29:27;;;;;;;4.47;4.07;;;7.70;71.50;;;;;;5007497;28;20552;-70
2021/04/07 11:31:57;;;;;;;5.05;4.55;;;7.90;70.90;;;;;;5000103;28;20233;-70
2021/04/07 11:34:59;;;;;;;4.15;3.85;;;7.70;68.50;;;;;;5002869;28;20193;-69
2021/04/07 11:37:36;;;;;;;10.95;5.55;;;7.60;70.60;;;;;;5004017;28;20273;-70
2021/04/07 11:40:08;;;;;;;5.95;3.70;;;8.10;69.20;;;;;;4982151;28;20208;-71
2021/04/07 11:45:05;;;;;;;3.40;3.17;;;8.30;64.50;;;;;;4997241;28;20273;-71
2021/04/07 11:47:32;;;;;;;4.57;3.67;;;7.90;63.70;;;;;;4999694;28;20282;-70
2021/04/07 11:49:59;;;;;;;5.50;3.65;;;7.60;66.30;;;;;;4990752;28;20248;-70
2021/04/07 11:52:31;;;;;;;11.65;4.53;;;7.50;66.00;;;;;;4978187;28;20237;-73
2021/04/07 11:54:58;;;;;;;3.97;3.63;;;7.40;65.10;;;;;;4999112;28;20210;-70
2021/04/07 11:57:24;;;;;;;4.25;3.95;;;7.60;67.10;;;;;;5012147;28;20280;-71
2021/04/07 11:59:55;;;;;;;5.85;4.05;;;7.90;65.90;;;;;;4990358;28;20214;-70
2021/04/07 12:02:32;;;;;;;5.13;4.63;;;8.20;67.10;;;;;;4980227;28;20218;-70
2021/04/07 12:05:01;;;;;;;3.78;3.50;;;8.70;67.10;;;;;;4998763;28;20420;-71
2021/04/07 12:07:28;;;;;;;4.63;4.22;;;8.40;65.60;;;;;;4998009;28;20233;-70
2021/04/07 12:09:55;;;;;;;10.05;4.55;;;7.20;79.80;;;;;;4991005;28;20220;-71
2021/04/07 12:12:23;;;;;;;8.00;4.95;;;6.40;90.30;;;;;;4974359;28;20428;-69
2021/04/07 12:14:56;;;;;;;3.55;3.25;;;6.00;90.90;;;;;;4985916;28;20256;-69
2021/04/07 12:17:24;;;;;;;3.80;3.50;;;6.00;89.20;;;;;;5011461;28;20448;-68
2021/04/07 12:19:53;;;;;;;3.15;2.95;;;6.10;86.40;;;;;;4997389;28;20205;-70
2021/04/07 12:22:20;;;;;;;3.95;3.65;;;6.40;80.60;;;;;;5010688;28;20236;-69
2021/04/07 12:24:49;;;;;;;4.90;4.50;;;6.50;79.40;;;;;;5004176;28;20204;-70
2021/04/07 12:27:18;;;;;;;10.25;4.00;;;6.50;77.40;;;;;;5018104;28;20213;-69
2021/04/07 12:29:46;;;;;;;12.95;5.57;;;6.60;78.20;;;;;;4987281;28;20233;-70
2021/04/07 12:32:13;;;;;;;4.65;4.15;;;6.60;77.10;;;;;;4998536;28;20587;-70
2021/04/07 12:34:44;;;;;;;5.72;4.03;;;6.80;76.00;;;;;;4991901;28;20525;-71
2021/04/07 12:37:11;;;;;;;6.22;4.22;;;7.30;74.90;;;;;;4999501;28;20205;-71
2021/04/07 12:39:39;;;;;;;4.75;4.25;;;7.60;73.30;;;;;;4998193;28;20201;-70
2021/04/07 12:42:15;;;;;;;11.25;6.05;;;7.50;70.60;;;;;;4999150;28;20209;-71
2021/04/07 12:44:42;;;;;;;5.15;4.65;;;7.10;71.80;;;;;;4998707;28;20213;-70
2021/04/07 12:47:08;;;;;;;5.18;4.68;;;6.90;71.80;;;;;;4986715;28;20205;-70
2021/04/07 12:49:35;;;;;;;6.05;5.50;;;6.80;73.80;;;;;;4986357;28;20248;-71
2021/04/07 12:52:02;;;;;;;5.70;5.30;;;6.60;74.90;;;;;;4996989;28;20504;-71
2021/04/07 12:54:31;;;;;;;7.30;6.15;;;6.60;75.30;;;;;;4986619;28;20256;-71
2021/04/07 12:57:02;;;;;;;5.70;5.20;;;6.60;75.00;;;;;;5011058;28;20223;-70
2021/04/07 12:59:29;;;;;;;7.63;5.65;;;6.90;76.00;;;;;;4986938;28;20277;-69
2021/04/07 13:01:57;;;;;;;8.93;6.68;;;7.20;76.90;;;;;;4985985;28;20238;-71
2021/04/07 13:04:23;;;;;;;6.60;5.65;;;7.80;78.70;;;;;;4994379;28;20209;-70
2021/04/07 13:06:51;;;;;;;5.22;4.82;;;7.10;78.10;;;;;;4997764;28;20209;-70
2021/04/07 13:09:18;;;;;;;4.97;4.50;;;7.10;77.50;;;;;;4997519;28;20524;-71